Al Ahsa, Saudi Arabia
Current Conditions -  °F | °C
As of 2:00 AM on Sunday 23 Nov 2014 (Local Time) from OEAH Reporting Station
Clear Clear  
Wind Chill: 68°   Ceiling: Unl
Heat Index: 68°   Visibility: 6mi
Dew Point: 46°   Wind: 5mph
Humidity: 46%   Direction: 220°SW
Pressure: 29.91"   Gusts: NA
Location:  25.3°N, 49.48°E
Report Text: OEAH 222300Z 22004KT CAVOK 20/08 Q1013 NOSIG
Loading
Personal Weather Stations






























Interactive Weather Map New forecast layout! Learn more

10-Day Weather Forecast

Advertisements
Track Severe Weather on mobile